sensor_id;sensor_type;location;lat;lon;timestamp;temperature;humidity
66861;SHT31;53770;42.334;23.550;2022-07-10T00:00:07;13.67;78.97
66861;SHT31;53770;42.334;23.550;2022-07-10T00:02:35;13.63;79.12
66861;SHT31;53770;42.334;23.550;2022-07-10T00:05:02;13.61;79.11
66861;SHT31;53770;42.334;23.550;2022-07-10T00:07:29;13.63;79.03
66861;SHT31;53770;42.334;23.550;2022-07-10T00:09:56;13.63;79.02
66861;SHT31;53770;42.334;23.550;2022-07-10T00:12:23;13.68;79.03
66861;SHT31;53770;42.334;23.550;2022-07-10T00:14:49;13.68;78.92
66861;SHT31;53770;42.334;23.550;2022-07-10T00:17:16;13.71;78.49
66861;SHT31;53770;42.334;23.550;2022-07-10T00:19:45;13.77;78.26
66861;SHT31;53770;42.334;23.550;2022-07-10T00:22:11;13.77;77.91
66861;SHT31;53770;42.334;23.550;2022-07-10T00:24:38;13.74;77.99
66861;SHT31;53770;42.334;23.550;2022-07-10T00:27:05;13.73;77.94
66861;SHT31;53770;42.334;23.550;2022-07-10T00:29:32;13.70;77.99
66861;SHT31;53770;42.334;23.550;2022-07-10T00:31:58;13.64;78.21
66861;SHT31;53770;42.334;23.550;2022-07-10T00:34:25;13.66;78.23
66861;SHT31;53770;42.334;23.550;2022-07-10T00:36:53;13.67;77.97
66861;SHT31;53770;42.334;23.550;2022-07-10T00:39:20;13.64;78.18
66861;SHT31;53770;42.334;23.550;2022-07-10T00:41:47;13.70;78.35
66861;SHT31;53770;42.334;23.550;2022-07-10T00:44:14;13.75;78.34
66861;SHT31;53770;42.334;23.550;2022-07-10T00:46:40;13.77;78.35
66861;SHT31;53770;42.334;23.550;2022-07-10T00:49:07;13.78;78.34
66861;SHT31;53770;42.334;23.550;2022-07-10T00:51:35;13.73;78.52
66861;SHT31;53770;42.334;23.550;2022-07-10T00:54:04;13.64;78.79
66861;SHT31;53770;42.334;23.550;2022-07-10T00:56:32;13.53;79.08
66861;SHT31;53770;42.334;23.550;2022-07-10T00:58:58;13.46;79.28
66861;SHT31;53770;42.334;23.550;2022-07-10T01:01:26;13.32;79.65
66861;SHT31;53770;42.334;23.550;2022-07-10T01:03:53;13.19;79.55
66861;SHT31;53770;42.334;23.550;2022-07-10T01:06:20;12.98;79.89
66861;SHT31;53770;42.334;23.550;2022-07-10T01:08:46;12.74;80.20
66861;SHT31;53770;42.334;23.550;2022-07-10T01:11:15;12.51;80.78
66861;SHT31;53770;42.334;23.550;2022-07-10T01:13:42;12.37;81.29
66861;SHT31;53770;42.334;23.550;2022-07-10T01:16:10;12.32;81.59
66861;SHT31;53770;42.334;23.550;2022-07-10T01:18:37;12.20;81.81
66861;SHT31;53770;42.334;23.550;2022-07-10T01:21:05;12.23;81.84
66861;SHT31;53770;42.334;23.550;2022-07-10T01:23:32;12.20;81.56
66861;SHT31;53770;42.334;23.550;2022-07-10T01:25:59;12.15;81.91
66861;SHT31;53770;42.334;23.550;2022-07-10T01:28:29;12.16;82.14
66861;SHT31;53770;42.334;23.550;2022-07-10T01:30:56;12.16;82.19
66861;SHT31;53770;42.334;23.550;2022-07-10T01:33:23;12.20;82.30
66861;SHT31;53770;42.334;23.550;2022-07-10T01:35:50;12.26;82.31
66861;SHT31;53770;42.334;23.550;2022-07-10T01:38:18;12.32;82.20
66861;SHT31;53770;42.334;23.550;2022-07-10T01:40:44;12.37;81.88
66861;SHT31;53770;42.334;23.550;2022-07-10T01:43:11;12.43;81.47
66861;SHT31;53770;42.334;23.550;2022-07-10T01:45:38;12.50;81.24
66861;SHT31;53770;42.334;23.550;2022-07-10T01:48:05;12.51;80.95
66861;SHT31;53770;42.334;23.550;2022-07-10T01:50:32;12.58;80.11
66861;SHT31;53770;42.334;23.550;2022-07-10T01:52:59;12.53;79.55
66861;SHT31;53770;42.334;23.550;2022-07-10T01:55:27;12.50;79.27
66861;SHT31;53770;42.334;23.550;2022-07-10T01:57:54;12.41;79.49
66861;SHT31;53770;42.334;23.550;2022-07-10T02:00:21;12.40;79.60
66861;SHT31;53770;42.334;23.550;2022-07-10T02:02:49;12.43;79.60
66861;SHT31;53770;42.334;23.550;2022-07-10T02:05:30;12.54;78.99
66861;SHT31;53770;42.334;23.550;2022-07-10T02:07:56;12.54;78.62
66861;SHT31;53770;42.334;23.550;2022-07-10T02:10:24;12.58;78.45
66861;SHT31;53770;42.334;23.550;2022-07-10T02:12:52;12.57;78.51
66861;SHT31;53770;42.334;23.550;2022-07-10T02:15:19;12.54;78.65
66861;SHT31;53770;42.334;23.550;2022-07-10T02:17:45;12.51;78.67
66861;SHT31;53770;42.334;23.550;2022-07-10T02:20:12;12.43;78.93
66861;SHT31;53770;42.334;23.550;2022-07-10T02:22:39;12.36;79.07
66861;SHT31;53770;42.334;23.550;2022-07-10T02:25:06;12.33;79.14
66861;SHT31;53770;42.334;23.550;2022-07-10T02:27:33;12.30;79.26
66861;SHT31;53770;42.334;23.550;2022-07-10T02:30:02;12.19;78.87
66861;SHT31;53770;42.334;23.550;2022-07-10T02:32:28;12.06;79.42
66861;SHT31;53770;42.334;23.550;2022-07-10T02:34:55;12.00;80.22
66861;SHT31;53770;42.334;23.550;2022-07-10T02:37:22;11.92;80.38
66861;SHT31;53770;42.334;23.550;2022-07-10T02:39:49;11.82;80.88
66861;SHT31;53770;42.334;23.550;2022-07-10T02:42:15;11.79;81.29
66861;SHT31;53770;42.334;23.550;2022-07-10T02:44:42;11.75;81.64
66861;SHT31;53770;42.334;23.550;2022-07-10T02:47:10;11.72;81.93
66861;SHT31;53770;42.334;23.550;2022-07-10T02:49:37;11.71;81.80
66861;SHT31;53770;42.334;23.550;2022-07-10T02:52:04;11.71;81.87
66861;SHT31;53770;42.334;23.550;2022-07-10T02:54:31;11.72;81.85
66861;SHT31;53770;42.334;23.550;2022-07-10T02:56:58;11.72;82.36
66861;SHT31;53770;42.334;23.550;2022-07-10T02:59:24;11.81;82.19
66861;SHT31;53770;42.334;23.550;2022-07-10T03:01:51;11.86;82.12
66861;SHT31;53770;42.334;23.550;2022-07-10T03:04:20;11.93;82.27
66861;SHT31;53770;42.334;23.550;2022-07-10T03:06:46;11.99;82.17
66861;SHT31;53770;42.334;23.550;2022-07-10T03:09:13;12.09;82.15
66861;SHT31;53770;42.334;23.550;2022-07-10T03:11:40;12.19;82.08
66861;SHT31;53770;42.334;23.550;2022-07-10T03:14:07;12.27;81.86
66861;SHT31;53770;42.334;23.550;2022-07-10T03:16:33;12.33;82.00
66861;SHT31;53770;42.334;23.550;2022-07-10T03:19:00;12.44;81.62
66861;SHT31;53770;42.334;23.550;2022-07-10T03:21:28;12.58;81.18
66861;SHT31;53770;42.334;23.550;2022-07-10T03:23:56;12.73;80.45
66861;SHT31;53770;42.334;23.550;2022-07-10T03:26:23;12.88;79.64
66861;SHT31;53770;42.334;23.550;2022-07-10T03:28:50;12.95;78.65
66861;SHT31;53770;42.334;23.550;2022-07-10T03:31:16;13.06;78.23
66861;SHT31;53770;42.334;23.550;2022-07-10T03:33:43;13.15;77.11
66861;SHT31;53770;42.334;23.550;2022-07-10T03:36:10;13.16;76.27
66861;SHT31;53770;42.334;23.550;2022-07-10T03:38:40;13.11;76.34
66861;SHT31;53770;42.334;23.550;2022-07-10T03:41:06;13.09;76.20
66861;SHT31;53770;42.334;23.550;2022-07-10T03:43:33;13.12;75.87
66861;SHT31;53770;42.334;23.550;2022-07-10T03:46:00;13.08;75.81
66861;SHT31;53770;42.334;23.550;2022-07-10T03:48:27;13.11;75.28
66861;SHT31;53770;42.334;23.550;2022-07-10T03:50:53;13.08;75.05
66861;SHT31;53770;42.334;23.550;2022-07-10T03:53:20;13.02;75.16
66861;SHT31;53770;42.334;23.550;2022-07-10T03:55:48;13.05;75.28
66861;SHT31;53770;42.334;23.550;2022-07-10T03:58:16;13.08;75.16
66861;SHT31;53770;42.334;23.550;2022-07-10T04:00:41;13.12;74.97
66861;SHT31;53770;42.334;23.550;2022-07-10T04:03:08;13.22;74.86
66861;SHT31;53770;42.334;23.550;2022-07-10T04:05:36;13.29;74.92
66861;SHT31;53770;42.334;23.550;2022-07-10T04:08:03;13.50;74.08
66861;SHT31;53770;42.334;23.550;2022-07-10T04:10:31;13.54;73.69
66861;SHT31;53770;42.334;23.550;2022-07-10T04:12:59;13.63;73.96
66861;SHT31;53770;42.334;23.550;2022-07-10T04:15:26;13.81;73.46
66861;SHT31;53770;42.334;23.550;2022-07-10T04:17:53;13.95;73.20
66861;SHT31;53770;42.334;23.550;2022-07-10T04:20:20;14.04;73.01
66861;SHT31;53770;42.334;23.550;2022-07-10T04:22:47;14.11;73.09
66861;SHT31;53770;42.334;23.550;2022-07-10T04:25:14;14.29;72.71
66861;SHT31;53770;42.334;23.550;2022-07-10T04:27:41;14.35;72.72
66861;SHT31;53770;42.334;23.550;2022-07-10T04:30:10;14.47;73.02
66861;SHT31;53770;42.334;23.550;2022-07-10T04:32:37;14.71;73.00
66861;SHT31;53770;42.334;23.550;2022-07-10T04:35:04;14.92;72.95
66861;SHT31;53770;42.334;23.550;2022-07-10T04:37:31;15.01;72.73
66861;SHT31;53770;42.334;23.550;2022-07-10T04:39:59;14.94;73.59
66861;SHT31;53770;42.334;23.550;2022-07-10T04:42:26;15.02;73.87
66861;SHT31;53770;42.334;23.550;2022-07-10T04:44:53;14.94;74.36
66861;SHT31;53770;42.334;23.550;2022-07-10T04:47:21;15.02;74.42
66861;SHT31;53770;42.334;23.550;2022-07-10T04:49:48;15.08;74.60
66861;SHT31;53770;42.334;23.550;2022-07-10T04:52:15;15.25;74.35
66861;SHT31;53770;42.334;23.550;2022-07-10T04:54:42;15.38;73.16
66861;SHT31;53770;42.334;23.550;2022-07-10T04:57:09;15.34;72.44
66861;SHT31;53770;42.334;23.550;2022-07-10T04:59:35;15.38;71.71
66861;SHT31;53770;42.334;23.550;2022-07-10T05:02:03;15.43;70.96
66861;SHT31;53770;42.334;23.550;2022-07-10T05:04:31;15.65;69.30
66861;SHT31;53770;42.334;23.550;2022-07-10T05:06:58;15.73;68.55
66861;SHT31;53770;42.334;23.550;2022-07-10T05:09:24;15.82;67.95
66861;SHT31;53770;42.334;23.550;2022-07-10T05:11:51;15.74;68.40
66861;SHT31;53770;42.334;23.550;2022-07-10T05:14:18;15.79;68.08
66861;SHT31;53770;42.334;23.550;2022-07-10T05:16:44;15.89;67.78
66861;SHT31;53770;42.334;23.550;2022-07-10T05:19:11;15.90;67.66
66861;SHT31;53770;42.334;23.550;2022-07-10T05:21:39;16.04;67.91
66861;SHT31;53770;42.334;23.550;2022-07-10T05:24:07;16.22;67.47
66861;SHT31;53770;42.334;23.550;2022-07-10T05:26:34;16.45;66.92
66861;SHT31;53770;42.334;23.550;2022-07-10T05:29:01;16.52;66.72
66861;SHT31;53770;42.334;23.550;2022-07-10T05:31:28;16.60;66.47
66861;SHT31;53770;42.334;23.550;2022-07-10T05:33:55;16.55;66.52
66861;SHT31;53770;42.334;23.550;2022-07-10T05:36:22;16.52;66.80
66861;SHT31;53770;42.334;23.550;2022-07-10T05:38:51;16.59;67.24
66861;SHT31;53770;42.334;23.550;2022-07-10T05:41:17;16.56;67.44
66861;SHT31;53770;42.334;23.550;2022-07-10T05:43:44;16.68;67.40
66861;SHT31;53770;42.334;23.550;2022-07-10T05:46:11;16.73;67.64
66861;SHT31;53770;42.334;23.550;2022-07-10T05:48:38;16.70;68.07
66861;SHT31;53770;42.334;23.550;2022-07-10T05:51:04;16.69;68.25
66861;SHT31;53770;42.334;23.550;2022-07-10T05:53:31;16.73;68.12
66861;SHT31;53770;42.334;23.550;2022-07-10T05:56:01;16.91;67.81
66861;SHT31;53770;42.334;23.550;2022-07-10T05:58:28;17.08;67.06
66861;SHT31;53770;42.334;23.550;2022-07-10T06:00:55;17.23;66.97
66861;SHT31;53770;42.334;23.550;2022-07-10T06:03:22;17.41;66.15
66861;SHT31;53770;42.334;23.550;2022-07-10T06:05:49;17.52;65.83
66861;SHT31;53770;42.334;23.550;2022-07-10T06:08:16;17.66;64.99
66861;SHT31;53770;42.334;23.550;2022-07-10T06:10:43;17.72;64.62
66861;SHT31;53770;42.334;23.550;2022-07-10T06:13:11;17.86;64.57
66861;SHT31;53770;42.334;23.550;2022-07-10T06:15:38;18.00;64.03
66861;SHT31;53770;42.334;23.550;2022-07-10T06:18:05;18.14;63.80
66861;SHT31;53770;42.334;23.550;2022-07-10T06:20:32;18.41;63.35
66861;SHT31;53770;42.334;23.550;2022-07-10T06:22:59;18.58;62.10
66861;SHT31;53770;42.334;23.550;2022-07-10T06:25:25;18.81;61.82
66861;SHT31;53770;42.334;23.550;2022-07-10T06:27:52;18.86;61.88
66861;SHT31;53770;42.334;23.550;2022-07-10T06:30:20;19.03;61.67
66861;SHT31;53770;42.334;23.550;2022-07-10T06:32:47;19.23;60.81
66861;SHT31;53770;42.334;23.550;2022-07-10T06:35:14;19.40;61.40
66861;SHT31;53770;42.334;23.550;2022-07-10T06:37:41;19.60;60.07
66861;SHT31;53770;42.334;23.550;2022-07-10T06:40:10;19.64;59.75
66861;SHT31;53770;42.334;23.550;2022-07-10T06:42:38;19.55;59.66
66861;SHT31;53770;42.334;23.550;2022-07-10T06:45:06;19.54;60.00
66861;SHT31;53770;42.334;23.550;2022-07-10T06:47:34;19.68;60.07
66861;SHT31;53770;42.334;23.550;2022-07-10T06:50:18;19.65;59.46
66861;SHT31;53770;42.334;23.550;2022-07-10T06:52:46;19.60;59.21
66861;SHT31;53770;42.334;23.550;2022-07-10T06:55:14;19.72;59.55
66861;SHT31;53770;42.334;23.550;2022-07-10T06:57:41;20.13;58.36
66861;SHT31;53770;42.334;23.550;2022-07-10T07:00:09;20.39;57.18
66861;SHT31;53770;42.334;23.550;2022-07-10T07:02:38;20.63;57.12
66861;SHT31;53770;42.334;23.550;2022-07-10T07:05:06;20.85;56.33
66861;SHT31;53770;42.334;23.550;2022-07-10T07:07:33;21.01;55.24
66861;SHT31;53770;42.334;23.550;2022-07-10T07:10:01;20.95;56.07
66861;SHT31;53770;42.334;23.550;2022-07-10T07:12:28;20.96;54.87
66861;SHT31;53770;42.334;23.550;2022-07-10T07:14:55;20.80;55.76
66861;SHT31;53770;42.334;23.550;2022-07-10T07:17:22;20.88;55.40
66861;SHT31;53770;42.334;23.550;2022-07-10T07:19:52;20.95;54.66
66861;SHT31;53770;42.334;23.550;2022-07-10T07:22:39;20.95;55.40
66861;SHT31;53770;42.334;23.550;2022-07-10T07:25:24;20.94;55.24
66861;SHT31;53770;42.334;23.550;2022-07-10T07:27:51;21.21;55.28
66861;SHT31;53770;42.334;23.550;2022-07-10T07:30:17;21.43;53.86
66861;SHT31;53770;42.334;23.550;2022-07-10T07:32:45;21.33;53.92
66861;SHT31;53770;42.334;23.550;2022-07-10T07:35:15;21.23;54.20
66861;SHT31;53770;42.334;23.550;2022-07-10T07:37:44;21.36;54.99
66861;SHT31;53770;42.334;23.550;2022-07-10T07:40:12;21.66;54.93
66861;SHT31;53770;42.334;23.550;2022-07-10T07:42:39;21.94;54.44
66861;SHT31;53770;42.334;23.550;2022-07-10T07:45:08;22.25;54.05
66861;SHT31;53770;42.334;23.550;2022-07-10T07:47:43;22.48;53.19
66861;SHT31;53770;42.334;23.550;2022-07-10T07:50:10;22.62;52.51
66861;SHT31;53770;42.334;23.550;2022-07-10T07:52:38;22.63;51.40
66861;SHT31;53770;42.334;23.550;2022-07-10T07:55:06;22.39;51.09
66861;SHT31;53770;42.334;23.550;2022-07-10T07:57:33;22.29;51.49
66861;SHT31;53770;42.334;23.550;2022-07-10T08:00:00;22.29;52.27
66861;SHT31;53770;42.334;23.550;2022-07-10T08:02:27;22.22;51.08
66861;SHT31;53770;42.334;23.550;2022-07-10T08:04:53;22.11;51.48
66861;SHT31;53770;42.334;23.550;2022-07-10T08:07:20;22.24;51.65
66861;SHT31;53770;42.334;23.550;2022-07-10T08:09:48;22.41;51.31
66861;SHT31;53770;42.334;23.550;2022-07-10T08:12:15;22.62;50.70
66861;SHT31;53770;42.334;23.550;2022-07-10T08:14:42;22.72;50.59
66861;SHT31;53770;42.334;23.550;2022-07-10T08:17:10;22.80;50.79
66861;SHT31;53770;42.334;23.550;2022-07-10T08:19:37;22.80;50.41
66861;SHT31;53770;42.334;23.550;2022-07-10T08:22:04;22.57;51.36
66861;SHT31;53770;42.334;23.550;2022-07-10T08:24:30;22.42;52.21
66861;SHT31;53770;42.334;23.550;2022-07-10T08:26:58;22.39;52.71
66861;SHT31;53770;42.334;23.550;2022-07-10T08:29:25;22.26;52.54
66861;SHT31;53770;42.334;23.550;2022-07-10T08:31:52;22.18;52.02
66861;SHT31;53770;42.334;23.550;2022-07-10T08:34:19;22.07;53.07
66861;SHT31;53770;42.334;23.550;2022-07-10T08:36:45;22.01;53.67
66861;SHT31;53770;42.334;23.550;2022-07-10T08:39:12;21.88;54.63
66861;SHT31;53770;42.334;23.550;2022-07-10T08:41:42;21.84;55.39
66861;SHT31;53770;42.334;23.550;2022-07-10T08:44:12;21.77;55.51
66861;SHT31;53770;42.334;23.550;2022-07-10T08:46:39;21.71;54.56
66861;SHT31;53770;42.334;23.550;2022-07-10T08:49:08;21.73;54.02
66861;SHT31;53770;42.334;23.550;2022-07-10T08:51:40;21.83;54.21
66861;SHT31;53770;42.334;23.550;2022-07-10T08:54:08;21.95;54.02
66861;SHT31;53770;42.334;23.550;2022-07-10T08:56:35;22.18;54.73
66861;SHT31;53770;42.334;23.550;2022-07-10T08:59:02;22.52;54.55
66861;SHT31;53770;42.334;23.550;2022-07-10T09:01:31;22.87;53.07
66861;SHT31;53770;42.334;23.550;2022-07-10T09:03:58;23.07;52.36
66861;SHT31;53770;42.334;23.550;2022-07-10T09:06:26;23.14;51.39
66861;SHT31;53770;42.334;23.550;2022-07-10T09:09:03;23.10;51.44
66861;SHT31;53770;42.334;23.550;2022-07-10T09:11:31;22.89;51.42
66861;SHT31;53770;42.334;23.550;2022-07-10T09:14:00;22.74;51.02
66861;SHT31;53770;42.334;23.550;2022-07-10T09:16:30;22.76;51.67
66861;SHT31;53770;42.334;23.550;2022-07-10T09:19:15;22.90;51.95
66861;SHT31;53770;42.334;23.550;2022-07-10T09:21:42;23.06;50.97
66861;SHT31;53770;42.334;23.550;2022-07-10T09:24:09;23.12;51.83
66861;SHT31;53770;42.334;23.550;2022-07-10T09:26:37;23.17;52.48
66861;SHT31;53770;42.334;23.550;2022-07-10T09:29:07;23.11;52.20
66861;SHT31;53770;42.334;23.550;2022-07-10T09:31:51;23.06;52.45
66861;SHT31;53770;42.334;23.550;2022-07-10T09:34:35;22.72;52.11
66861;SHT31;53770;42.334;23.550;2022-07-10T09:37:17;22.52;52.90
66861;SHT31;53770;42.334;23.550;2022-07-10T09:39:51;22.46;53.87
66861;SHT31;53770;42.334;23.550;2022-07-10T09:42:25;22.25;53.31
66861;SHT31;53770;42.334;23.550;2022-07-10T09:44:52;22.08;54.19
66861;SHT31;53770;42.334;23.550;2022-07-10T09:47:23;21.88;53.68
66861;SHT31;53770;42.334;23.550;2022-07-10T09:49:49;21.67;54.32
66861;SHT31;53770;42.334;23.550;2022-07-10T09:52:18;21.61;55.71
66861;SHT31;53770;42.334;23.550;2022-07-10T09:54:45;21.71;55.90
66861;SHT31;53770;42.334;23.550;2022-07-10T09:57:13;21.83;55.67
66861;SHT31;53770;42.334;23.550;2022-07-10T09:59:41;22.02;55.61
66861;SHT31;53770;42.334;23.550;2022-07-10T10:02:09;22.29;55.13
66861;SHT31;53770;42.334;23.550;2022-07-10T10:04:41;22.84;54.39
66861;SHT31;53770;42.334;23.550;2022-07-10T10:07:09;23.39;53.13
66861;SHT31;53770;42.334;23.550;2022-07-10T10:09:40;23.96;50.52
66861;SHT31;53770;42.334;23.550;2022-07-10T10:12:10;24.44;50.13
66861;SHT31;53770;42.334;23.550;2022-07-10T10:14:40;25.03;48.51
66861;SHT31;53770;42.334;23.550;2022-07-10T10:17:07;25.16;47.07
66861;SHT31;53770;42.334;23.550;2022-07-10T10:19:34;25.53;46.25
66861;SHT31;53770;42.334;23.550;2022-07-10T10:22:22;26.08;45.77
66861;SHT31;53770;42.334;23.550;2022-07-10T10:24:50;26.77;45.04
66861;SHT31;53770;42.334;23.550;2022-07-10T10:27:19;26.96;41.71
66861;SHT31;53770;42.334;23.550;2022-07-10T10:29:48;26.30;43.12
66861;SHT31;53770;42.334;23.550;2022-07-10T10:32:16;25.74;44.32
66861;SHT31;53770;42.334;23.550;2022-07-10T10:34:45;25.05;45.13
66861;SHT31;53770;42.334;23.550;2022-07-10T10:37:36;24.48;46.87
66861;SHT31;53770;42.334;23.550;2022-07-10T10:40:05;24.71;46.75
66861;SHT31;53770;42.334;23.550;2022-07-10T10:42:33;25.98;44.24
66861;SHT31;53770;42.334;23.550;2022-07-10T10:45:25;27.16;41.79
66861;SHT31;53770;42.334;23.550;2022-07-10T10:48:04;28.59;39.54
66861;SHT31;53770;42.334;23.550;2022-07-10T10:50:39;30.25;36.35
66861;SHT31;53770;42.334;23.550;2022-07-10T10:53:14;31.54;34.33
66861;SHT31;53770;42.334;23.550;2022-07-10T10:55:45;33.48;31.71
66861;SHT31;53770;42.334;23.550;2022-07-10T10:58:38;35.84;28.35
66861;SHT31;53770;42.334;23.550;2022-07-10T11:01:05;36.18;28.26
66861;SHT31;53770;42.334;23.550;2022-07-10T11:03:32;34.90;29.72
66861;SHT31;53770;42.334;23.550;2022-07-10T11:05:59;35.59;28.82
66861;SHT31;53770;42.334;23.550;2022-07-10T11:08:39;37.32;25.86
66861;SHT31;53770;42.334;23.550;2022-07-10T11:11:39;36.09;26.73
66861;SHT31;53770;42.334;23.550;2022-07-10T11:14:08;36.41;26.63
66861;SHT31;53770;42.334;23.550;2022-07-10T11:16:37;38.38;25.41
66861;SHT31;53770;42.334;23.550;2022-07-10T11:19:04;39.84;23.39
66861;SHT31;53770;42.334;23.550;2022-07-10T11:21:43;40.71;23.06
66861;SHT31;53770;42.334;23.550;2022-07-10T11:24:20;41.13;21.41
66861;SHT31;53770;42.334;23.550;2022-07-10T11:27:04;40.75;21.78
66861;SHT31;53770;42.334;23.550;2022-07-10T11:29:37;40.61;22.53
66861;SHT31;53770;42.334;23.550;2022-07-10T11:32:05;39.76;22.85
66861;SHT31;53770;42.334;23.550;2022-07-10T11:34:36;37.30;24.69
66861;SHT31;53770;42.334;23.550;2022-07-10T11:37:03;34.87;27.45
66861;SHT31;53770;42.334;23.550;2022-07-10T11:39:30;33.10;30.47
66861;SHT31;53770;42.334;23.550;2022-07-10T11:41:57;31.70;32.46
66861;SHT31;53770;42.334;23.550;2022-07-10T11:44:24;30.72;33.73
66861;SHT31;53770;42.334;23.550;2022-07-10T11:46:54;29.90;36.05
66861;SHT31;53770;42.334;23.550;2022-07-10T11:49:23;29.10;35.67
66861;SHT31;53770;42.334;23.550;2022-07-10T11:51:49;28.60;36.30
66861;SHT31;53770;42.334;23.550;2022-07-10T11:54:17;28.34;36.62
66861;SHT31;53770;42.334;23.550;2022-07-10T11:56:46;27.71;37.23
66861;SHT31;53770;42.334;23.550;2022-07-10T11:59:14;27.22;38.06
66861;SHT31;53770;42.334;23.550;2022-07-10T12:01:42;26.81;39.74
66861;SHT31;53770;42.334;23.550;2022-07-10T12:04:12;26.48;39.66
66861;SHT31;53770;42.334;23.550;2022-07-10T12:06:42;26.39;40.16
66861;SHT31;53770;42.334;23.550;2022-07-10T12:09:11;26.41;40.52
66861;SHT31;53770;42.334;23.550;2022-07-10T12:11:38;26.47;41.04
66861;SHT31;53770;42.334;23.550;2022-07-10T12:14:11;26.53;41.58
66861;SHT31;53770;42.334;23.550;2022-07-10T12:16:40;26.54;41.72
66861;SHT31;53770;42.334;23.550;2022-07-10T12:19:08;26.57;41.27
66861;SHT31;53770;42.334;23.550;2022-07-10T12:21:37;27.74;39.93
66861;SHT31;53770;42.334;23.550;2022-07-10T12:24:05;29.39;36.63
66861;SHT31;53770;42.334;23.550;2022-07-10T12:26:33;30.88;34.92
66861;SHT31;53770;42.334;23.550;2022-07-10T12:29:01;31.88;31.97
66861;SHT31;53770;42.334;23.550;2022-07-10T12:31:29;34.10;30.50
66861;SHT31;53770;42.334;23.550;2022-07-10T12:33:58;36.73;27.21
66861;SHT31;53770;42.334;23.550;2022-07-10T12:36:42;39.21;23.85
66861;SHT31;53770;42.334;23.550;2022-07-10T12:39:10;40.81;22.86
66861;SHT31;53770;42.334;23.550;2022-07-10T12:41:58;42.21;21.45
66861;SHT31;53770;42.334;23.550;2022-07-10T12:44:36;43.22;20.50
66861;SHT31;53770;42.334;23.550;2022-07-10T12:47:04;44.03;20.02
66861;SHT31;53770;42.334;23.550;2022-07-10T12:49:48;44.50;19.12
66861;SHT31;53770;42.334;23.550;2022-07-10T12:52:21;44.71;19.58
66861;SHT31;53770;42.334;23.550;2022-07-10T12:54:48;42.76;19.91
66861;SHT31;53770;42.334;23.550;2022-07-10T12:57:15;42.83;21.01
66861;SHT31;53770;42.334;23.550;2022-07-10T12:59:41;43.93;20.05
66861;SHT31;53770;42.334;23.550;2022-07-10T13:02:17;45.15;18.82
66861;SHT31;53770;42.334;23.550;2022-07-10T13:04:52;45.91;17.94
66861;SHT31;53770;42.334;23.550;2022-07-10T13:07:20;44.99;18.19
66861;SHT31;53770;42.334;23.550;2022-07-10T13:09:54;43.52;19.39
66861;SHT31;53770;42.334;23.550;2022-07-10T13:12:21;40.94;21.58
66861;SHT31;53770;42.334;23.550;2022-07-10T13:14:48;40.15;22.37
66861;SHT31;53770;42.334;23.550;2022-07-10T13:17:15;41.01;21.81
66861;SHT31;53770;42.334;23.550;2022-07-10T13:19:42;41.80;21.01
66861;SHT31;53770;42.334;23.550;2022-07-10T13:22:09;42.49;20.24
66861;SHT31;53770;42.334;23.550;2022-07-10T13:24:37;42.48;20.09
66861;SHT31;53770;42.334;23.550;2022-07-10T13:27:04;42.18;20.64
66861;SHT31;53770;42.334;23.550;2022-07-10T13:29:32;42.31;20.64
66861;SHT31;53770;42.334;23.550;2022-07-10T13:31:59;40.17;21.37
66861;SHT31;53770;42.334;23.550;2022-07-10T13:34:25;39.21;22.99
66861;SHT31;53770;42.334;23.550;2022-07-10T13:36:52;37.60;24.10
66861;SHT31;53770;42.334;23.550;2022-07-10T13:39:20;35.59;26.56
66861;SHT31;53770;42.334;23.550;2022-07-10T13:41:49;34.01;28.98
66861;SHT31;53770;42.334;23.550;2022-07-10T13:44:16;32.74;29.97
66861;SHT31;53770;42.334;23.550;2022-07-10T13:46:43;31.61;31.75
66861;SHT31;53770;42.334;23.550;2022-07-10T13:49:10;30.85;32.98
66861;SHT31;53770;42.334;23.550;2022-07-10T13:51:37;30.14;34.58
66861;SHT31;53770;42.334;23.550;2022-07-10T13:54:03;29.49;34.95
66861;SHT31;53770;42.334;23.550;2022-07-10T13:56:30;28.90;35.99
66861;SHT31;53770;42.334;23.550;2022-07-10T13:58:59;28.38;36.70
66861;SHT31;53770;42.334;23.550;2022-07-10T14:01:25;28.01;37.62
66861;SHT31;53770;42.334;23.550;2022-07-10T14:03:52;27.64;38.42
66861;SHT31;53770;42.334;23.550;2022-07-10T14:06:19;27.25;39.22
66861;SHT31;53770;42.334;23.550;2022-07-10T14:08:46;26.95;39.78
66861;SHT31;53770;42.334;23.550;2022-07-10T14:11:13;26.80;39.85
66861;SHT31;53770;42.334;23.550;2022-07-10T14:13:40;26.57;39.92
66861;SHT31;53770;42.334;23.550;2022-07-10T14:16:08;26.23;41.80
66861;SHT31;53770;42.334;23.550;2022-07-10T14:18:35;25.84;41.29
66861;SHT31;53770;42.334;23.550;2022-07-10T14:21:03;25.51;41.12
66861;SHT31;53770;42.334;23.550;2022-07-10T14:23:33;25.10;42.35
66861;SHT31;53770;42.334;23.550;2022-07-10T14:26:00;24.80;42.51
66861;SHT31;53770;42.334;23.550;2022-07-10T14:28:27;24.51;42.19
66861;SHT31;53770;42.334;23.550;2022-07-10T14:30:54;24.30;42.90
66861;SHT31;53770;42.334;23.550;2022-07-10T14:33:22;24.06;43.15
66861;SHT31;53770;42.334;23.550;2022-07-10T14:35:49;23.83;43.83
66861;SHT31;53770;42.334;23.550;2022-07-10T14:38:15;23.69;44.05
66861;SHT31;53770;42.334;23.550;2022-07-10T14:40:42;23.52;45.31
66861;SHT31;53770;42.334;23.550;2022-07-10T14:43:09;23.38;47.02
66861;SHT31;53770;42.334;23.550;2022-07-10T14:45:36;23.17;48.87
66861;SHT31;53770;42.334;23.550;2022-07-10T14:48:03;22.89;50.31
66861;SHT31;53770;42.334;23.550;2022-07-10T14:50:33;22.59;51.81
66861;SHT31;53770;42.334;23.550;2022-07-10T14:52:59;22.29;51.98
66861;SHT31;53770;42.334;23.550;2022-07-10T14:55:26;22.05;55.63
66861;SHT31;53770;42.334;23.550;2022-07-10T14:57:53;21.77;57.10
66861;SHT31;53770;42.334;23.550;2022-07-10T15:00:20;21.47;57.82
66861;SHT31;53770;42.334;23.550;2022-07-10T15:02:46;21.29;58.94
66861;SHT31;53770;42.334;23.550;2022-07-10T15:05:13;21.12;60.92
66861;SHT31;53770;42.334;23.550;2022-07-10T15:07:41;21.01;60.65
66861;SHT31;53770;42.334;23.550;2022-07-10T15:10:08;20.90;60.49
66861;SHT31;53770;42.334;23.550;2022-07-10T15:12:35;20.87;59.71
66861;SHT31;53770;42.334;23.550;2022-07-10T15:15:04;20.77;59.36
66861;SHT31;53770;42.334;23.550;2022-07-10T15:17:33;20.48;61.14
66861;SHT31;53770;42.334;23.550;2022-07-10T15:20:00;20.33;61.90
66861;SHT31;53770;42.334;23.550;2022-07-10T15:22:26;20.08;63.64